Vera, Texas
Current Conditions -  °F | °C
As of 9:36 AM on Thursday 30 Oct 2014 (Local Time) from KF05 Reporting Station
Scattered Clouds Scattered Clouds  
Wind Chill: 61°   Ceiling: Unl
Heat Index: 61°   Visibility: 10mi
Dew Point: 45°   Wind: 3mph
Humidity: 55%   Direction: 140°SE
Pressure: 30.15"   Gusts: NA
Location:  33.6337°N, 99.8039°W
Report Text: KF05 301436Z AUTO 14003KT 10SM SCT060 16/07 A3015 RMK AO2
Loading
Personal Weather Stations






























Interactive Weather Map
Tropical Storm Tracking
New forecast layout! Learn more

10-Day Weather Forecast

Advertisements
Track Severe Weather on mobile